Time;durP1;ratioP1;P1;durP2;ratioP2;P2;SDS_P1;SDS_P2;PMS_P1;PMS_P2;Temp;Humidity;BMP_temperature;BMP_pressure;BME280_temperature;BME280_humidity;BME280_pressure;Samples;Min_cycle;Max_cycle;Signal;HPM_P1;HPM_P2
2022/04/24 00:01:08;;;;;;;0.95;0.30;;;;;;;19.13;52.61;99651.25;5023738;28;20022;-41
2022/04/24 00:03:33;;;;;;;1.55;0.40;;;;;;;19.12;52.64;99645.16;5012009;28;20159;-44
2022/04/24 00:06:00;;;;;;;1.20;0.43;;;;;;;19.12;52.52;99631.94;5020433;28;20116;-42
2022/04/24 00:08:25;;;;;;;4.10;0.50;;;;;;;19.12;52.62;99641.72;5021039;28;20159;-44
2022/04/24 00:10:51;;;;;;;2.15;0.40;;;;;;;19.11;52.58;99656.75;5020723;28;20634;-41
2022/04/24 00:13:16;;;;;;;3.30;0.60;;;;;;;19.11;52.37;99663.84;5016078;28;20045;-45
2022/04/24 00:15:42;;;;;;;1.65;0.43;;;;;;;19.11;52.68;99671.78;5016868;28;20022;-41
2022/04/24 00:18:08;;;;;;;1.67;0.32;;;;;;;19.10;52.50;99691.28;5012656;28;20421;-44
2022/04/24 00:20:34;;;;;;;1.80;0.45;;;;;;;19.10;52.48;99680.72;5010227;28;20147;-43
2022/04/24 00:22:59;;;;;;;1.38;0.40;;;;;;;19.10;52.62;99678.09;5025561;28;20037;-44
2022/04/24 00:25:24;;;;;;;1.67;0.30;;;;;;;19.10;52.59;99663.06;5011834;28;20122;-42
2022/04/24 00:27:50;;;;;;;1.35;0.40;;;;;;;19.10;52.47;99662.25;5023595;28;20036;-44
2022/04/24 00:30:15;;;;;;;1.80;0.38;;;;;;;19.11;52.53;99645.38;5025202;28;20370;-41
2022/04/24 00:32:41;;;;;;;4.43;0.32;;;;;;;19.11;52.49;99663.84;5021274;28;20041;-43
2022/04/24 00:35:06;;;;;;;1.25;0.30;;;;;;;19.11;52.46;99664.66;5018646;28;20539;-44
2022/04/24 00:37:32;;;;;;;1.88;0.40;;;;;;;19.12;52.33;99639.06;5012530;28;20389;-44
2022/04/24 00:39:57;;;;;;;1.98;0.40;;;;;;;19.12;52.48;99617.94;5015380;28;20022;-44
2022/04/24 00:42:23;;;;;;;1.48;0.40;;;;;;;19.11;52.46;99611.06;5017407;28;20022;-42
2022/04/24 00:44:48;;;;;;;0.80;0.30;;;;;;;19.11;52.46;99617.13;5017516;28;20041;-42
2022/04/24 00:47:17;;;;;;;1.23;0.40;;;;;;;19.11;52.61;99611.06;5016402;28;20037;-44
2022/04/24 00:49:44;;;;;;;1.02;0.38;;;;;;;19.12;52.30;99604.75;5014543;28;20162;-43
2022/04/24 00:52:11;;;;;;;1.63;0.30;;;;;;;19.12;52.41;99615.31;5016383;28;20021;-42
2022/04/24 00:54:37;;;;;;;0.73;0.30;;;;;;;19.11;52.32;99616.34;5008045;28;20045;-43
2022/04/24 00:57:05;;;;;;;0.98;0.30;;;;;;;19.11;52.37;99608.41;5022094;28;20075;-44
2022/04/24 00:59:30;;;;;;;0.80;0.30;;;;;;;19.10;52.27;99596.25;5021206;28;20060;-44
2022/04/24 01:01:56;;;;;;;1.63;0.40;;;;;;;19.09;52.38;99594.63;5023038;28;20026;-41
2022/04/24 01:04:21;;;;;;;0.98;0.30;;;;;;;19.09;52.40;99597.25;5022780;28;20493;-43
2022/04/24 01:06:47;;;;;;;2.33;0.40;;;;;;;19.08;52.24;99595.66;5021812;28;20041;-42
2022/04/24 01:09:17;;;;;;;2.92;0.30;;;;;;;19.07;52.24;99588.75;5017277;28;20038;-43
2022/04/24 01:11:44;;;;;;;1.05;0.30;;;;;;;19.07;52.25;99591.41;5017991;28;20061;-42
2022/04/24 01:14:11;;;;;;;2.15;0.40;;;;;;;19.06;52.27;99590.59;5012729;28;20081;-44
2022/04/24 01:16:37;;;;;;;2.17;0.60;;;;;;;19.06;52.40;99592.44;5020952;28;20022;-42
2022/04/24 01:19:04;;;;;;;0.55;0.20;;;;;;;19.04;52.24;99597.13;5020781;28;20036;-48
2022/04/24 01:21:29;;;;;;;2.17;0.50;;;;;;;19.05;52.31;99591.63;5022732;28;20029;-41
2022/04/24 01:23:55;;;;;;;1.45;0.40;;;;;;;19.04;52.00;99592.66;5009923;28;20103;-43
2022/04/24 01:26:20;;;;;;;1.17;0.20;;;;;;;19.04;52.32;99581.28;5023528;28;20040;-45
2022/04/24 01:28:46;;;;;;;2.15;0.50;;;;;;;19.04;52.09;99581.28;5014426;28;20454;-43
2022/04/24 01:31:11;;;;;;;1.23;0.30;;;;;;;19.04;52.35;99565.44;5020950;28;20030;-46
2022/04/24 01:33:37;;;;;;;1.17;0.20;;;;;;;19.03;52.29;99574.38;5014262;28;20453;-43
2022/04/24 01:36:03;;;;;;;0.50;0.20;;;;;;;19.02;52.19;99560.38;5012276;28;20029;-43
2022/04/24 01:38:31;;;;;;;0.68;0.20;;;;;;;19.02;52.17;99568.31;5016181;28;20179;-44
2022/04/24 01:40:57;;;;;;;1.23;0.30;;;;;;;19.02;52.17;99578.06;5023497;28;20029;-43
2022/04/24 01:43:22;;;;;;;0.73;0.30;;;;;;;19.01;52.04;99560.59;5018835;28;20037;-41
2022/04/24 01:45:48;;;;;;;0.68;0.30;;;;;;;19.01;52.21;99560.59;5022672;28;20469;-43
2022/04/24 01:48:13;;;;;;;0.80;0.20;;;;;;;19.00;52.19;99565.06;5016714;28;20021;-43
2022/04/24 01:50:39;;;;;;;0.77;0.20;;;;;;;19.00;52.08;99564.25;5022339;28;20354;-42
2022/04/24 01:53:05;;;;;;;1.13;0.30;;;;;;;18.99;52.23;99552.91;5024193;28;20147;-42
2022/04/24 01:55:31;;;;;;;0.98;0.30;;;;;;;18.99;52.23;99554.72;5023011;28;20041;-42
2022/04/24 01:57:56;;;;;;;1.05;0.20;;;;;;;18.99;52.11;99549.47;5023127;28;20337;-41
2022/04/24 02:00:21;;;;;;;1.50;0.22;;;;;;;18.98;52.02;99537.28;5020828;28;20029;-43
2022/04/24 02:02:47;;;;;;;0.68;0.30;;;;;;;18.97;52.19;99530.38;5022433;28;20042;-43
2022/04/24 02:05:13;;;;;;;0.60;0.20;;;;;;;18.97;52.08;99522.47;5012909;28;20390;-41
2022/04/24 02:07:39;;;;;;;2.55;0.30;;;;;;;18.98;52.08;99518.81;5023567;28;20045;-42
2022/04/24 02:10:05;;;;;;;1.30;0.20;;;;;;;18.96;52.16;99508.47;5008463;28;20501;-42
2022/04/24 02:12:30;;;;;;;1.13;0.20;;;;;;;18.96;52.05;99502.38;5257353;22;20449;-41
2022/04/24 02:14:56;;;;;;;0.98;0.20;;;;;;;18.95;52.02;99495.50;4986921;28;20220;-42
2022/04/24 02:17:22;;;;;;;0.73;0.20;;;;;;;18.95;52.02;99492.84;4987008;28;20030;-45
2022/04/24 02:19:47;;;;;;;0.47;0.20;;;;;;;18.95;52.12;99491.03;4986736;28;20490;-41
2022/04/24 02:22:13;;;;;;;0.65;0.30;;;;;;;18.95;52.06;99483.09;4987129;28;20302;-41
2022/04/24 02:24:38;;;;;;;0.70;0.20;;;;;;;18.95;52.13;99466.47;4986741;28;20389;-45
2022/04/24 02:27:04;;;;;;;0.30;0.20;;;;;;;18.95;51.95;99475.19;4987177;28;20026;-41
2022/04/24 02:29:30;;;;;;;0.65;0.20;;;;;;;18.96;52.05;99473.34;4986869;28;20393;-41
2022/04/24 02:31:55;;;;;;;0.88;0.20;;;;;;;18.97;52.08;99469.69;4987203;28;20034;-42
2022/04/24 02:34:20;;;;;;;0.90;0.20;;;;;;;18.97;51.95;99469.69;4986758;28;20034;-42
2022/04/24 02:36:46;;;;;;;0.80;0.20;;;;;;;18.97;52.02;99459.13;4986971;28;20027;-42
2022/04/24 02:39:11;;;;;;;0.40;0.10;;;;;;;18.96;51.99;99458.31;4986786;28;20390;-43
2022/04/24 02:41:37;;;;;;;0.75;0.20;;;;;;;18.96;52.02;99455.69;4986982;28;20038;-42
2022/04/24 02:44:03;;;;;;;0.80;0.20;;;;;;;18.97;51.92;99446.72;4986674;28;20034;-43
2022/04/24 02:46:28;;;;;;;0.70;0.30;;;;;;;18.97;51.89;99433.53;4985343;28;20100;-43
2022/04/24 02:48:54;;;;;;;0.80;0.17;;;;;;;18.97;51.97;99432.72;4985126;28;20038;-43
2022/04/24 02:51:19;;;;;;;1.80;0.30;;;;;;;18.99;51.91;99433.31;4986984;28;20040;-42
2022/04/24 02:53:45;;;;;;;1.30;0.20;;;;;;;18.98;51.86;99434.34;4986635;28;20030;-44
2022/04/24 02:56:10;;;;;;;0.75;0.20;;;;;;;18.98;51.97;99439.63;4986577;28;20050;-42
2022/04/24 02:58:38;;;;;;;1.13;0.25;;;;;;;18.96;51.94;99436.41;4986834;28;20034;-42
2022/04/24 03:01:04;;;;;;;1.13;0.30;;;;;;;18.96;51.77;99436.41;4986892;28;20026;-43
2022/04/24 03:03:29;;;;;;;1.25;0.15;;;;;;;18.96;52.08;99431.13;4986470;28;20065;-43
2022/04/24 03:05:55;;;;;;;0.77;0.13;;;;;;;18.96;51.91;99425.84;4986741;28;20030;-41
2022/04/24 03:08:21;;;;;;;0.60;0.20;;;;;;;18.96;52.00;99423.19;4986561;28;20030;-45
2022/04/24 03:10:46;;;;;;;1.20;0.20;;;;;;;18.95;51.84;99421.59;4986744;28;20060;-42
2022/04/24 03:13:12;;;;;;;1.10;0.20;;;;;;;18.94;52.08;99427.91;4986312;28;20074;-42
2022/04/24 03:15:38;;;;;;;0.63;0.20;;;;;;;18.93;52.05;99419.19;4989181;28;20034;-42
2022/04/24 03:18:04;;;;;;;0.50;0.20;;;;;;;18.93;51.89;99419.19;4990284;28;20057;-42
2022/04/24 03:20:30;;;;;;;0.68;0.20;;;;;;;18.94;51.92;99419.97;4990108;28;20109;-41
2022/04/24 03:22:56;;;;;;;0.70;0.20;;;;;;;18.93;51.88;99407.81;4990411;28;20117;-43
2022/04/24 03:25:21;;;;;;;0.55;0.20;;;;;;;18.93;52.09;99405.19;4989961;28;20428;-41
2022/04/24 03:27:47;;;;;;;2.55;0.20;;;;;;;18.93;51.75;99418.38;4990178;28;20119;-47
2022/04/24 03:30:12;;;;;;;0.95;0.17;;;;;;;18.92;52.04;99414.13;4990141;28;20172;-44
2022/04/24 03:32:39;;;;;;;0.93;0.20;;;;;;;18.93;51.88;99421.00;4989711;28;20030;-44
2022/04/24 03:35:07;;;;;;;0.95;0.30;;;;;;;18.91;51.91;99429.16;4989867;28;20038;-42
2022/04/24 03:37:32;;;;;;;0.52;0.20;;;;;;;18.92;51.97;99422.03;4989812;28;20481;-42
2022/04/24 03:39:59;;;;;;;0.98;0.20;;;;;;;18.92;51.98;99416.75;4989947;28;20113;-43
2022/04/24 03:42:26;;;;;;;1.85;0.10;;;;;;;18.92;52.03;99440.50;4989619;28;20041;-43
2022/04/24 03:44:55;;;;;;;1.40;0.20;;;;;;;18.89;51.99;99429.41;4989656;28;20031;-43
2022/04/24 03:47:21;;;;;;;0.40;0.20;;;;;;;18.90;51.88;99444.19;4989926;28;20589;-42
2022/04/24 03:49:46;;;;;;;0.60;0.20;;;;;;;18.89;51.89;99460.25;4989635;28;20034;-42
2022/04/24 03:52:12;;;;;;;0.77;0.20;;;;;;;18.89;52.01;99468.19;4989452;28;20125;-44
2022/04/24 03:54:38;;;;;;;0.60;0.20;;;;;;;18.88;51.95;99477.94;4989285;28;20038;-41
2022/04/24 03:57:04;;;;;;;0.70;0.17;;;;;;;18.88;51.91;99462.09;4989607;28;20105;-44
2022/04/24 03:59:29;;;;;;;0.45;0.10;;;;;;;18.88;51.99;99461.28;4989686;28;20117;-42
2022/04/24 04:01:55;;;;;;;1.38;0.20;;;;;;;18.87;52.13;99468.41;4989086;28;20042;-44
2022/04/24 04:04:20;;;;;;;1.05;0.20;;;;;;;18.87;51.98;99480.78;4989113;28;20030;-42
2022/04/24 04:06:46;;;;;;;0.68;0.20;;;;;;;18.86;52.11;99490.53;4989603;28;20035;-41
2022/04/24 04:09:11;;;;;;;3.67;0.38;;;;;;;18.86;52.21;99516.94;4989242;28;20038;-43
2022/04/24 04:11:37;;;;;;;0.93;0.17;;;;;;;18.86;52.22;99531.97;4989076;28;20050;-44
2022/04/24 04:14:02;;;;;;;1.23;0.13;;;;;;;18.86;52.04;99547.81;4988993;28;20378;-43
2022/04/24 04:16:28;;;;;;;1.42;0.13;;;;;;;18.84;52.05;99565.69;4989289;28;20469;-40
2022/04/24 04:18:54;;;;;;;1.17;0.20;;;;;;;18.84;52.08;99569.13;4989150;28;20030;-42
2022/04/24 04:21:20;;;;;;;0.95;0.20;;;;;;;18.83;52.16;99567.50;4989205;28;20506;-43
2022/04/24 04:23:45;;;;;;;1.75;0.20;;;;;;;18.84;52.08;99574.41;4989107;28;20026;-44
2022/04/24 04:26:10;;;;;;;0.40;0.10;;;;;;;18.84;52.11;99582.31;4988601;28;20452;-43
2022/04/24 04:28:36;;;;;;;1.85;0.10;;;;;;;18.83;52.28;99585.19;4988889;28;20502;-43
2022/04/24 04:31:01;;;;;;;1.02;0.20;;;;;;;18.84;52.05;99586.78;4988957;28;20456;-42
2022/04/24 04:33:27;;;;;;;0.65;0.10;;;;;;;18.85;52.22;99583.94;4988966;28;20033;-41
2022/04/24 04:35:52;;;;;;;0.88;0.20;;;;;;;18.85;52.08;99581.28;4988546;28;20026;-43
2022/04/24 04:38:18;;;;;;;2.83;0.20;;;;;;;18.85;52.17;99576.03;4988828;28;20054;-42
2022/04/24 04:40:43;;;;;;;0.40;0.15;;;;;;;18.86;52.13;99572.34;4988572;28;20455;-41
2022/04/24 04:43:09;;;;;;;0.40;0.10;;;;;;;18.86;52.06;99558.34;4988725;28;20084;-43
2022/04/24 04:45:34;;;;;;;1.05;0.20;;;;;;;18.86;51.99;99538.03;4988611;28;20129;-43
2022/04/24 04:48:00;;;;;;;0.68;0.15;;;;;;;18.87;51.85;99544.13;4988417;28;20041;-43
2022/04/24 04:50:25;;;;;;;1.30;0.15;;;;;;;18.88;51.98;99540.47;4988657;28;20080;-43
2022/04/24 04:52:51;;;;;;;1.38;0.13;;;;;;;18.88;51.92;99529.91;4988326;28;20030;-41
2022/04/24 04:55:16;;;;;;;1.35;0.10;;;;;;;18.86;52.02;99519.56;4988213;28;20064;-45
2022/04/24 04:57:42;;;;;;;0.40;0.10;;;;;;;18.87;51.86;99515.91;4988305;28;20040;-43
2022/04/24 05:00:08;;;;;;;1.85;0.10;;;;;;;18.88;51.84;99492.97;4988098;28;20032;-43
2022/04/24 05:02:38;;;;;;;0.43;0.10;;;;;;;18.86;51.87;99485.25;4986495;28;20034;-46
2022/04/24 05:05:05;;;;;;;0.50;0.20;;;;;;;18.87;52.02;99478.97;4987610;28;20109;-44
2022/04/24 05:07:30;;;;;;;2.05;0.10;;;;;;;18.87;51.65;99476.31;4986818;28;20155;-42
2022/04/24 05:09:56;;;;;;;1.27;0.20;;;;;;;18.86;51.79;99458.06;4988237;28;20548;-44
2022/04/24 05:12:26;;;;;;;0.93;0.10;;;;;;;18.85;51.68;99457.25;4987102;28;20141;-41
2022/04/24 05:14:52;;;;;;;0.60;0.10;;;;;;;18.84;51.91;99453.00;4984010;28;20473;-43
2022/04/24 05:17:17;;;;;;;0.65;0.17;;;;;;;18.83;51.69;99459.31;4987718;28;20034;-42
2022/04/24 05:19:43;;;;;;;1.05;0.15;;;;;;;18.83;51.87;99459.31;4986875;28;20121;-44
2022/04/24 05:22:08;;;;;;;0.50;0.30;;;;;;;18.84;51.96;99470.69;4988078;28;20069;-46
2022/04/24 05:24:34;;;;;;;0.60;0.10;;;;;;;18.82;51.82;99463.00;4986829;28;20037;-46
2022/04/24 05:27:01;;;;;;;1.00;0.10;;;;;;;18.82;51.69;99463.00;4987732;28;20022;-41
2022/04/24 05:29:27;;;;;;;0.77;0.10;;;;;;;18.82;51.88;99456.91;4986067;28;20030;-42
2022/04/24 05:31:53;;;;;;;2.22;0.20;;;;;;;18.82;51.78;99456.91;4986814;28;20034;-43
2022/04/24 05:34:19;;;;;;;1.27;0.10;;;;;;;18.83;51.95;99447.97;4987383;28;20041;-43
2022/04/24 05:36:44;;;;;;;0.32;0.10;;;;;;;18.82;51.86;99456.91;4985275;28;20042;-42
2022/04/24 05:39:09;;;;;;;0.65;0.30;;;;;;;18.81;51.97;99448.19;4987070;28;20468;-43
2022/04/24 05:41:35;;;;;;;1.58;0.30;;;;;;;18.81;51.82;99440.25;4987348;28;20038;-41
2022/04/24 05:44:00;;;;;;;0.20;0.10;;;;;;;18.81;51.86;99445.53;4987241;28;20157;-43
2022/04/24 05:46:26;;;;;;;0.75;0.10;;;;;;;18.81;51.88;99448.19;4984747;28;20406;-42
2022/04/24 05:48:51;;;;;;;1.42;0.20;;;;;;;18.82;51.87;99457.72;4987803;28;20164;-44
2022/04/24 05:51:16;;;;;;;1.92;0.20;;;;;;;18.80;51.73;99465.03;4986149;28;20378;-41
2022/04/24 05:53:42;;;;;;;1.92;0.20;;;;;;;18.81;51.80;99473.75;4986616;28;20038;-41
2022/04/24 05:56:07;;;;;;;0.65;0.10;;;;;;;18.80;51.74;99483.50;4987612;28;20034;-42
2022/04/24 05:58:32;;;;;;;0.68;0.10;;;;;;;18.80;51.64;99487.97;4984199;28;20030;-42
2022/04/24 06:00:58;;;;;;;0.95;0.10;;;;;;;18.79;51.76;99484.53;4985916;28;20026;-41
2022/04/24 06:03:23;;;;;;;0.82;0.13;;;;;;;18.78;51.72;99498.75;4984229;28;20408;-48
2022/04/24 06:05:49;;;;;;;3.35;0.28;;;;;;;18.76;52.11;99500.81;4978617;28;20038;-39
2022/04/24 06:08:15;;;;;;;1.65;0.10;;;;;;;18.78;52.74;99506.66;4981286;28;20045;-40
2022/04/24 06:10:41;;;;;;;2.13;0.20;;;;;;;18.80;53.00;99506.44;4978808;28;20144;-42
2022/04/24 06:13:07;;;;;;;0.45;0.10;;;;;;;18.81;53.47;99508.06;4982240;28;20046;-42
2022/04/24 06:15:32;;;;;;;1.55;0.20;;;;;;;18.89;54.07;99510.41;4984622;28;20492;-40
2022/04/24 06:17:58;;;;;;;2.25;0.20;;;;;;;18.98;54.30;99513.53;4985438;28;20070;-45
2022/04/24 06:20:25;;;;;;;7.18;0.30;;;;;;;19.04;54.77;99520.56;4985770;28;20133;-48
2022/04/24 06:22:52;;;;;;;5.28;1.90;;;;;;;19.08;57.66;99514.63;4986538;28;20031;-43
2022/04/24 06:25:19;;;;;;;1.02;0.20;;;;;;;19.08;57.17;99529.66;4987650;28;20064;-47
2022/04/24 06:27:45;;;;;;;1.67;0.30;;;;;;;19.05;56.62;99538.81;4986252;28;20034;-54
2022/04/24 06:30:11;;;;;;;5.20;0.13;;;;;;;19.01;56.04;99535.00;4986490;28;20072;-50
2022/04/24 06:32:39;;;;;;;1.92;0.13;;;;;;;19.00;55.80;99537.88;4987464;28;20392;-45
2022/04/24 06:35:09;;;;;;;0.65;0.20;;;;;;;18.98;55.61;99534.66;4986840;28;20486;-51
2022/04/24 06:37:42;;;;;;;2.00;0.10;;;;;;;18.96;55.18;99534.06;4984879;28;20043;-44
2022/04/24 06:40:10;;;;;;;1.63;0.17;;;;;;;18.96;54.78;99528.78;4984393;28;20405;-50
2022/04/24 06:42:46;;;;;;;0.82;0.10;;;;;;;18.95;54.60;99540.38;4983632;28;21839;-55
2022/04/24 06:45:11;;;;;;;2.92;0.10;;;;;;;18.95;54.19;99540.38;4981895;28;20026;-40
2022/04/24 06:47:37;;;;;;;2.50;0.10;;;;;;;18.94;54.08;99538.75;4986706;28;20045;-54
2022/04/24 06:50:02;;;;;;;0.45;0.13;;;;;;;18.93;53.65;99524.75;4988604;28;20042;-51
2022/04/24 06:52:28;;;;;;;3.90;0.10;;;;;;;18.95;54.21;99519.25;4991089;28;20042;-52
2022/04/24 06:54:54;;;;;;;1.15;0.10;;;;;;;19.00;53.99;99512.28;4989390;28;20030;-48
2022/04/24 06:57:19;;;;;;;2.53;0.10;;;;;;;19.01;53.96;99502.53;4990174;28;20353;-51
2022/04/24 06:59:45;;;;;;;3.60;0.20;;;;;;;18.99;54.06;99510.66;4990414;28;20117;-50
2022/04/24 07:02:10;;;;;;;5.82;0.17;;;;;;;19.00;54.13;99506.19;4988564;28;20042;-47
2022/04/24 07:04:36;;;;;;;1.85;0.20;;;;;;;18.99;53.95;99501.94;4989381;28;20160;-56
2022/04/24 07:07:02;;;;;;;2.20;0.10;;;;;;;18.98;54.12;99505.59;4985960;28;20045;-56
2022/04/24 07:09:29;;;;;;;0.80;0.10;;;;;;;18.97;54.18;99502.16;4983188;28;20022;-49
2022/04/24 07:11:54;;;;;;;2.05;0.20;;;;;;;18.98;53.97;99502.97;4988606;28;20043;-50
2022/04/24 07:14:20;;;;;;;4.95;0.75;;;;;;;18.97;54.09;99518.00;4987310;28;20053;-43
2022/04/24 07:16:46;;;;;;;8.13;0.38;;;;;;;18.97;55.02;99517.19;4989472;28;20097;-40
2022/04/24 07:19:11;;;;;;;7.50;0.50;;;;;;;18.96;54.45;99524.31;4987307;28;20520;-47
2022/04/24 07:21:36;;;;;;;3.90;0.20;;;;;;;18.97;54.86;99517.19;4988174;28;20027;-43
2022/04/24 07:24:03;;;;;;;10.65;0.35;;;;;;;18.96;55.07;99507.66;4989080;28;20026;-42
2022/04/24 07:26:29;;;;;;;6.63;0.20;;;;;;;18.96;54.81;99520.84;4988468;28;20467;-50
2022/04/24 07:28:54;;;;;;;11.93;0.70;;;;;;;18.95;54.58;99521.88;4988245;28;20034;-46
2022/04/24 07:31:20;;;;;;;16.48;0.82;;;;;;;18.94;54.60;99523.72;4987646;28;20113;-43
2022/04/24 07:33:45;;;;;;;15.02;0.70;;;;;;;18.94;54.63;99531.63;4987780;28;20038;-50
2022/04/24 07:36:11;;;;;;;3.30;0.25;;;;;;;18.95;54.55;99529.81;4985399;28;20029;-44
2022/04/24 07:38:36;;;;;;;2.78;0.30;;;;;;;18.93;54.37;99527.38;4988130;28;20036;-40
2022/04/24 07:41:03;;;;;;;3.05;0.20;;;;;;;18.94;54.17;99533.47;4987424;28;20389;-47
2022/04/24 07:43:29;;;;;;;2.85;0.28;;;;;;;18.92;53.83;99532.88;4987410;28;20041;-49
2022/04/24 07:45:54;;;;;;;6.50;0.20;;;;;;;18.93;53.73;99529.22;4987764;28;20026;-50
2022/04/24 07:48:20;;;;;;;2.38;0.20;;;;;;;18.92;53.73;99527.59;4985685;28;20034;-46
2022/04/24 07:50:50;;;;;;;9.10;0.75;;;;;;;18.92;53.81;99532.88;4986230;28;20045;-45
2022/04/24 07:53:16;;;;;;;2.15;0.20;;;;;;;18.91;53.81;99529.44;4987698;28;20125;-44
2022/04/24 07:55:43;;;;;;;5.07;0.22;;;;;;;18.92;53.57;99530.25;4989446;28;20512;-42
2022/04/24 07:58:09;;;;;;;2.97;0.10;;;;;;;18.92;53.30;99524.97;4989533;28;20034;-45
2022/04/24 08:00:34;;;;;;;5.75;0.15;;;;;;;18.91;53.09;99526.81;4987998;28;20080;-45
2022/04/24 08:03:08;;;;;;;3.72;0.20;;;;;;;18.91;52.91;99529.44;4989018;28;20034;-43
2022/04/24 08:05:43;;;;;;;3.90;0.32;;;;;;;18.88;52.71;99530.72;4989597;28;20105;-44
2022/04/24 08:08:14;;;;;;;4.93;0.47;;;;;;;18.88;52.68;99537.81;4989646;28;20437;-45
2022/04/24 08:10:42;;;;;;;2.05;0.20;;;;;;;18.87;52.50;99539.66;4989241;28;20061;-44
2022/04/24 08:13:08;;;;;;;4.13;0.25;;;;;;;18.87;52.45;99539.66;4987453;28;20502;-47
2022/04/24 08:15:35;;;;;;;4.68;0.22;;;;;;;18.87;52.31;99544.13;4989269;28;20042;-44
2022/04/24 08:18:01;;;;;;;2.45;0.20;;;;;;;18.88;52.29;99553.66;4987553;28;20058;-48
2022/04/24 08:20:27;;;;;;;2.60;0.13;;;;;;;18.86;52.31;99551.25;4988827;28;20401;-43
2022/04/24 08:22:53;;;;;;;5.00;0.30;;;;;;;18.87;52.30;99557.34;4988906;28;20421;-50
2022/04/24 08:25:24;;;;;;;3.45;0.20;;;;;;;18.85;52.41;99552.28;4988898;28;20034;-50
2022/04/24 08:27:51;;;;;;;4.28;0.17;;;;;;;18.85;52.22;99560.19;4989216;28;20064;-45
2022/04/24 08:30:19;;;;;;;2.25;0.15;;;;;;;18.85;52.08;99562.81;4988698;28;20033;-45
2022/04/24 08:32:45;;;;;;;2.83;0.40;;;;;;;18.83;52.16;99562.25;4988844;28;20092;-47
2022/04/24 08:35:12;;;;;;;2.35;0.15;;;;;;;18.84;52.10;99553.28;4988844;28;20037;-43
2022/04/24 08:37:37;;;;;;;3.25;0.30;;;;;;;18.84;51.95;99560.41;4988584;28;20033;-43
2022/04/24 08:40:05;;;;;;;1.55;0.20;;;;;;;18.83;52.14;99546.41;4988755;28;20031;-44
2022/04/24 08:42:30;;;;;;;2.58;0.20;;;;;;;18.82;52.40;99544.78;4988472;28;20120;-43
2022/04/24 08:44:56;;;;;;;2.20;0.20;;;;;;;18.83;52.36;99543.75;4989005;28;20046;-44
2022/04/24 08:47:23;;;;;;;3.40;0.30;;;;;;;18.83;52.14;99530.56;4988498;28;20030;-41
2022/04/24 08:49:54;;;;;;;0.80;0.10;;;;;;;18.84;52.23;99534.81;4988629;28;20062;-44
2022/04/24 08:52:20;;;;;;;2.33;0.20;;;;;;;18.85;52.19;99525.88;4988509;28;20042;-48
2022/04/24 08:54:46;;;;;;;2.25;0.20;;;;;;;18.85;52.25;99519.78;4988287;28;20026;-46
2022/04/24 08:57:12;;;;;;;1.30;0.10;;;;;;;18.85;52.21;99517.97;4988347;28;20117;-48
2022/04/24 08:59:39;;;;;;;2.63;0.20;;;;;;;18.87;52.13;99517.75;4988412;28;20093;-41
2022/04/24 09:02:06;;;;;;;0.60;0.20;;;;;;;18.87;52.12;99517.75;4987989;28;20093;-44
2022/04/24 09:04:33;;;;;;;1.55;0.10;;;;;;;18.87;52.00;99518.53;4988143;28;20030;-42
2022/04/24 09:07:00;;;;;;;3.50;0.20;;;;;;;18.87;51.99;99518.53;4988077;28;20091;-48
2022/04/24 09:09:27;;;;;;;0.93;0.10;;;;;;;18.88;51.99;99525.44;4988005;28;20339;-41
2022/04/24 09:11:53;;;;;;;2.35;0.10;;;;;;;18.88;51.77;99525.44;4987945;28;20354;-43
2022/04/24 09:14:19;;;;;;;1.75;0.20;;;;;;;18.89;51.98;99518.31;4987966;28;20038;-43
2022/04/24 09:16:48;;;;;;;3.70;0.20;;;;;;;18.90;51.90;99522.59;4986535;28;20042;-41
2022/04/24 09:19:21;;;;;;;0.70;0.10;;;;;;;18.88;51.79;99517.53;4988237;28;20374;-45
2022/04/24 09:22:00;;;;;;;0.85;0.20;;;;;;;18.87;51.92;99520.38;4988202;28;20040;-45
2022/04/24 09:24:37;;;;;;;3.22;0.20;;;;;;;18.87;51.78;99517.75;4987933;28;20611;-47
2022/04/24 09:27:02;;;;;;;2.95;0.32;;;;;;;18.87;51.78;99523.81;4987599;28;20066;-44
2022/04/24 09:29:28;;;;;;;3.17;0.38;;;;;;;18.86;51.82;99527.50;4988267;28;20050;-46
2022/04/24 09:31:53;;;;;;;1.95;0.30;;;;;;;18.86;51.82;99521.41;4987929;28;20109;-44
2022/04/24 09:34:20;;;;;;;2.35;0.30;;;;;;;18.87;51.60;99529.09;4987649;28;20393;-48
2022/04/24 09:37:00;;;;;;;3.58;0.30;;;;;;;18.84;51.60;99520.81;4987923;28;20030;-50
2022/04/24 09:39:27;;;;;;;2.80;0.70;;;;;;;18.85;51.65;99525.88;4986378;28;20037;-44
2022/04/24 09:42:08;;;;;;;2.92;0.30;;;;;;;18.83;51.61;99522.66;4987787;28;20034;-47
2022/04/24 09:44:48;;;;;;;2.63;0.40;;;;;;;18.81;51.38;99519.44;4986219;28;20030;-46
2022/04/24 09:47:16;;;;;;;2.13;0.20;;;;;;;18.83;51.60;99522.66;4987721;28;20030;-47
2022/04/24 09:49:45;;;;;;;1.35;0.30;;;;;;;18.82;51.53;99526.31;4987404;28;20407;-48
2022/04/24 09:52:17;;;;;;;2.05;0.30;;;;;;;18.83;51.32;99532.41;4987335;28;20096;-45
2022/04/24 09:54:44;;;;;;;2.08;0.20;;;;;;;18.83;51.54;99532.41;4987490;28;20476;-45
2022/04/24 09:57:11;;;;;;;0.95;0.20;;;;;;;18.84;51.31;99526.09;4987527;28;20460;-47
2022/04/24 09:59:41;;;;;;;4.18;0.30;;;;;;;18.84;51.30;99529.53;4987262;28;20038;-43
2022/04/24 10:02:08;;;;;;;2.95;0.20;;;;;;;18.84;51.40;99528.75;4986137;28;20034;-40
2022/04/24 10:04:36;;;;;;;1.70;0.20;;;;;;;18.84;51.24;99534.81;4986962;28;20030;-42
2022/04/24 10:07:06;;;;;;;1.40;0.30;;;;;;;18.84;51.13;99531.38;4987205;28;20038;-45
2022/04/24 10:09:45;;;;;;;1.10;0.20;;;;;;;18.81;51.09;99535.25;4983376;28;20370;-46
2022/04/24 10:12:16;;;;;;;2.42;0.20;;;;;;;18.82;51.24;99547.44;4984826;28;20047;-45
2022/04/24 10:14:53;;;;;;;2.22;0.40;;;;;;;18.81;51.07;99527.34;4986926;28;20038;-46
2022/04/24 10:17:53;;;;;;;1.83;0.30;;;;;;;18.79;51.00;99533.88;4987107;28;20509;-46
2022/04/24 10:20:56;;;;;;;1.85;0.20;;;;;;;18.77;50.97;99539.38;4986996;28;20039;-49
2022/04/24 10:23:32;;;;;;;0.98;0.10;;;;;;;18.78;51.04;99546.25;4985309;28;20034;-47
2022/04/24 10:25:57;;;;;;;2.38;0.20;;;;;;;18.80;51.10;99549.47;4986246;28;20031;-46
2022/04/24 10:28:27;;;;;;;1.35;0.10;;;;;;;18.80;51.00;99544.19;4985326;28;20084;-46
2022/04/24 10:31:00;;;;;;;4.28;0.32;;;;;;;18.79;50.91;99541.78;4986737;28;20038;-46
2022/04/24 10:33:32;;;;;;;0.77;0.20;;;;;;;18.80;50.95;99548.69;4987187;28;20421;-44
2022/04/24 10:36:14;;;;;;;0.90;0.30;;;;;;;18.78;50.79;99548.09;4987165;28;20029;-42
2022/04/24 10:39:19;;;;;;;2.40;0.30;;;;;;;18.77;50.81;99554.38;4987178;28;20038;-48
2022/04/24 10:42:07;;;;;;;1.83;0.20;;;;;;;18.76;50.83;99553.59;4963270;28;20133;-42
2022/04/24 10:44:32;;;;;;;1.33;0.20;;;;;;;18.78;50.80;99553.38;4985323;28;20085;-41
2022/04/24 10:46:59;;;;;;;4.53;0.30;;;;;;;18.78;50.69;99551.53;4986078;28;20448;-46
2022/04/24 10:49:32;;;;;;;2.17;0.30;;;;;;;18.79;50.76;99555.78;4984980;28;20564;-42
2022/04/24 10:52:03;;;;;;;2.33;0.20;;;;;;;18.77;50.71;99554.38;4985614;28;20034;-47
2022/04/24 10:54:38;;;;;;;5.20;0.40;;;;;;;18.77;50.82;99549.91;4984886;28;20030;-50
2022/04/24 10:57:22;;;;;;;;;;;;;;;18.69;51.07;99550.22;4985842;28;20038;-51
2022/04/24 10:59:52;;;;;;;2.95;0.30;;;;;;;18.73;51.08;99548.75;4983868;28;19921;-47
2022/04/24 11:02:30;;;;;;;2.05;0.20;;;;;;;18.75;51.16;99549.34;4985217;28;20029;-47
2022/04/24 11:05:06;;;;;;;3.45;0.50;;;;;;;18.80;51.23;99560.03;4984788;28;20035;-46
2022/04/24 11:07:33;;;;;;;2.90;0.40;;;;;;;18.82;51.30;99550.06;4986658;28;20103;-47
2022/04/24 11:10:04;;;;;;;2.60;0.40;;;;;;;18.83;51.26;99549.03;4985448;28;20054;-46
2022/04/24 11:12:31;;;;;;;2.75;0.30;;;;;;;18.86;51.18;99556.53;4984174;28;20141;-42
2022/04/24 11:15:11;;;;;;;4.13;0.75;;;;;;;18.86;51.23;99561.00;4984051;28;20088;-46
2022/04/24 11:17:37;;;;;;;3.97;0.60;;;;;;;18.87;51.34;99560.78;4984348;28;20042;-43
2022/04/24 11:20:09;;;;;;;5.05;0.55;;;;;;;18.88;51.21;99558.94;4982222;28;20510;-50
2022/04/24 11:22:49;;;;;;;4.45;0.60;;;;;;;18.86;51.20;99561.81;4985458;28;20169;-47
2022/04/24 11:25:16;;;;;;;3.58;0.63;;;;;;;18.88;51.02;99562.38;4985626;28;20085;-42
2022/04/24 11:27:44;;;;;;;5.43;0.88;;;;;;;18.90;51.26;99567.44;4984531;28;20034;-50
2022/04/24 11:30:26;;;;;;;3.70;1.08;;;;;;;18.88;51.10;99565.03;4985216;28;20200;-46
2022/04/24 11:33:09;;;;;;;2.95;0.60;;;;;;;18.88;51.53;99570.31;4984125;28;20108;-52
2022/04/24 11:35:37;;;;;;;2.88;0.50;;;;;;;18.90;51.42;99572.72;4984210;28;20394;-43